Nags Head, NC

12:54 PM EST on December 18, 2014 (GMT -0500)
Elizabeth City Cgas-Regional | Change Station
CLOSE
Current Station
Airport
Location: Elizabeth City,
Elevation: 13 ft
Nearby Weather Stations

Elev 13 ft 36.26 °N, 76.18 °W | Updated 1 hour ago

Clear
Clear
49 °F
Feels Like 49 °F
N
6
Wind Variable Wind from North

Today
High -- | Low -- °F
--% Chance of Precip.
Yesterday
High -- | Low -- °F
Precip. -- in
7:05 AM 4:51 PM
Waning Crescent, 13% visible
Pressure 30.13 in
Visibility 10.0 miles
Clouds Clear
Dew Point 27 °F
Humidity 43%
Rainfall 0.00 in
Snow Depth Not available.
UV 3 out of 12
Pollen .70 out of 12
Air Quality Not available.
Flu Activity Not available.
METAR KECG 181654Z 36005KT 10SM CLR 09/M03 A3013 RMK AO2 SLP202 T00941028

More Conditions Fewer Conditions

Pressure 30.13 in
Visibility 10.0 miles
Clouds Clear
Dew Point 27 °F
Humidity 43%
Rainfall 0.00 in
Snow Depth Not available.
UV 3 out of 12
Pollen .70 out of 12
Air Quality Not available.
Flu Activity Not available.
METAR KECG 181654Z 36005KT 10SM CLR 09/M03 A3013 RMK AO2 SLP202 T00941028

More Conditions Fewer Conditions

10-Day Weather Forecast

Almanac

Astronomy

Dec. 18, 2014 Rise Set
Actual Time
Civil Twilight
Nautical Twilight
Astronomical Twilight
Moon
Length of Visible Light
Length of Day
Tomorrow will be .
, % of the Moon is Illuminated

Today's Extremes

State Highs State Lows

Community

WunderPhotos

Upload Photos

1,778,969 photos uploaded!

WunderBlogs® & News

Nearby

Air Quality

  Air Quality AQ Index Pollutant
Not available.

Snow Depth

Station Depth Elevation

Earthquake Activity

City Distance Mag. Time & Date
Minimum magnitude displayed is 2.5.

Coastal Water Temperatures

Place Temperature

Nearby Weather Stations